sensor_id;sensor_type;location;lat;lon;timestamp;P1;durP1;ratioP1;P2;durP2;ratioP2
75167;SDS011;63748;48.088;11.476;2023-05-25T00:00:59;9.02;;;2.30;;
75167;SDS011;63748;48.088;11.476;2023-05-25T00:03:25;8.15;;;2.95;;
75167;SDS011;63748;48.088;11.476;2023-05-25T00:05:51;8.55;;;2.80;;
75167;SDS011;63748;48.088;11.476;2023-05-25T00:08:18;5.80;;;2.20;;
75167;SDS011;63748;48.088;11.476;2023-05-25T00:10:44;6.10;;;2.25;;
75167;SDS011;63748;48.088;11.476;2023-05-25T00:13:10;6.10;;;2.60;;
75167;SDS011;63748;48.088;11.476;2023-05-25T00:15:36;10.25;;;2.90;;
75167;SDS011;63748;48.088;11.476;2023-05-25T00:18:02;7.82;;;2.90;;
75167;SDS011;63748;48.088;11.476;2023-05-25T00:20:28;4.10;;;2.47;;
75167;SDS011;63748;48.088;11.476;2023-05-25T00:22:54;4.45;;;2.72;;
75167;SDS011;63748;48.088;11.476;2023-05-25T00:25:20;6.07;;;2.38;;
75167;SDS011;63748;48.088;11.476;2023-05-25T00:27:46;8.23;;;2.72;;
75167;SDS011;63748;48.088;11.476;2023-05-25T00:30:13;8.43;;;2.65;;
75167;SDS011;63748;48.088;11.476;2023-05-25T00:32:39;4.68;;;2.78;;
75167;SDS011;63748;48.088;11.476;2023-05-25T00:35:06;5.25;;;2.60;;
75167;SDS011;63748;48.088;11.476;2023-05-25T00:37:33;11.73;;;2.50;;
75167;SDS011;63748;48.088;11.476;2023-05-25T00:39:59;6.22;;;2.33;;
75167;SDS011;63748;48.088;11.476;2023-05-25T00:42:25;6.07;;;2.55;;
75167;SDS011;63748;48.088;11.476;2023-05-25T00:44:52;8.98;;;2.53;;
75167;SDS011;63748;48.088;11.476;2023-05-25T00:47:18;6.10;;;2.47;;
75167;SDS011;63748;48.088;11.476;2023-05-25T00:49:44;8.15;;;2.92;;
75167;SDS011;63748;48.088;11.476;2023-05-25T00:52:11;7.60;;;2.72;;
75167;SDS011;63748;48.088;11.476;2023-05-25T00:54:37;5.65;;;2.65;;
75167;SDS011;63748;48.088;11.476;2023-05-25T00:57:05;6.38;;;2.38;;
75167;SDS011;63748;48.088;11.476;2023-05-25T00:59:32;4.22;;;2.15;;
75167;SDS011;63748;48.088;11.476;2023-05-25T01:02:04;5.22;;;2.55;;
75167;SDS011;63748;48.088;11.476;2023-05-25T01:04:33;7.00;;;2.80;;
75167;SDS011;63748;48.088;11.476;2023-05-25T01:07:00;6.13;;;2.60;;
75167;SDS011;63748;48.088;11.476;2023-05-25T01:09:27;10.13;;;2.90;;
75167;SDS011;63748;48.088;11.476;2023-05-25T01:11:54;4.93;;;2.78;;
75167;SDS011;63748;48.088;11.476;2023-05-25T01:14:21;7.47;;;2.80;;
75167;SDS011;63748;48.088;11.476;2023-05-25T01:16:48;8.05;;;2.42;;
75167;SDS011;63748;48.088;11.476;2023-05-25T01:19:15;6.07;;;2.60;;
75167;SDS011;63748;48.088;11.476;2023-05-25T01:24:29;6.63;;;3.20;;
75167;SDS011;63748;48.088;11.476;2023-05-25T01:27:20;6.95;;;2.63;;
75167;SDS011;63748;48.088;11.476;2023-05-25T01:32:08;5.22;;;2.63;;
75167;SDS011;63748;48.088;11.476;2023-05-25T01:34:35;6.18;;;2.40;;
75167;SDS011;63748;48.088;11.476;2023-05-25T01:37:02;5.97;;;2.85;;
75167;SDS011;63748;48.088;11.476;2023-05-25T01:39:28;5.82;;;2.70;;
75167;SDS011;63748;48.088;11.476;2023-05-25T01:41:55;5.20;;;2.50;;
75167;SDS011;63748;48.088;11.476;2023-05-25T01:44:21;6.80;;;3.05;;
75167;SDS011;63748;48.088;11.476;2023-05-25T01:46:49;7.75;;;2.80;;
75167;SDS011;63748;48.088;11.476;2023-05-25T01:49:22;6.28;;;2.88;;
75167;SDS011;63748;48.088;11.476;2023-05-25T01:54:19;3.92;;;2.58;;
75167;SDS011;63748;48.088;11.476;2023-05-25T01:56:47;5.38;;;2.95;;
75167;SDS011;63748;48.088;11.476;2023-05-25T01:59:14;5.25;;;2.80;;
75167;SDS011;63748;48.088;11.476;2023-05-25T02:01:41;9.43;;;2.92;;
75167;SDS011;63748;48.088;11.476;2023-05-25T02:04:07;6.18;;;3.03;;
75167;SDS011;63748;48.088;11.476;2023-05-25T02:06:37;4.80;;;2.63;;
75167;SDS011;63748;48.088;11.476;2023-05-25T02:09:03;7.30;;;2.83;;
75167;SDS011;63748;48.088;11.476;2023-05-25T02:11:29;6.25;;;2.92;;
75167;SDS011;63748;48.088;11.476;2023-05-25T02:13:55;7.60;;;3.58;;
75167;SDS011;63748;48.088;11.476;2023-05-25T02:16:21;5.75;;;2.90;;
75167;SDS011;63748;48.088;11.476;2023-05-25T02:18:47;6.75;;;3.25;;
75167;SDS011;63748;48.088;11.476;2023-05-25T02:21:15;10.02;;;3.47;;
75167;SDS011;63748;48.088;11.476;2023-05-25T02:23:41;7.95;;;3.65;;
75167;SDS011;63748;48.088;11.476;2023-05-25T02:26:07;8.43;;;4.05;;
75167;SDS011;63748;48.088;11.476;2023-05-25T02:28:33;11.88;;;4.30;;
75167;SDS011;63748;48.088;11.476;2023-05-25T02:31:00;8.00;;;3.83;;
75167;SDS011;63748;48.088;11.476;2023-05-25T02:33:26;8.10;;;4.22;;
75167;SDS011;63748;48.088;11.476;2023-05-25T02:35:52;7.50;;;3.83;;
75167;SDS011;63748;48.088;11.476;2023-05-25T02:38:18;7.85;;;4.22;;
75167;SDS011;63748;48.088;11.476;2023-05-25T02:40:44;8.25;;;4.35;;
75167;SDS011;63748;48.088;11.476;2023-05-25T02:43:11;7.55;;;4.43;;
75167;SDS011;63748;48.088;11.476;2023-05-25T02:45:37;9.52;;;5.10;;
75167;SDS011;63748;48.088;11.476;2023-05-25T02:48:03;9.52;;;4.90;;
75167;SDS011;63748;48.088;11.476;2023-05-25T02:50:29;7.90;;;5.03;;
75167;SDS011;63748;48.088;11.476;2023-05-25T02:52:55;7.15;;;4.65;;
75167;SDS011;63748;48.088;11.476;2023-05-25T02:55:21;11.63;;;5.72;;
75167;SDS011;63748;48.088;11.476;2023-05-25T02:57:50;12.43;;;5.10;;
75167;SDS011;63748;48.088;11.476;2023-05-25T03:00:16;10.95;;;5.63;;
75167;SDS011;63748;48.088;11.476;2023-05-25T03:02:44;12.05;;;5.32;;
75167;SDS011;63748;48.088;11.476;2023-05-25T03:05:12;11.32;;;6.22;;
75167;SDS011;63748;48.088;11.476;2023-05-25T03:07:38;9.02;;;5.00;;
75167;SDS011;63748;48.088;11.476;2023-05-25T03:10:06;11.65;;;6.43;;
75167;SDS011;63748;48.088;11.476;2023-05-25T03:12:32;12.55;;;6.82;;
75167;SDS011;63748;48.088;11.476;2023-05-25T03:14:58;13.82;;;6.53;;
75167;SDS011;63748;48.088;11.476;2023-05-25T03:17:24;10.27;;;6.13;;
75167;SDS011;63748;48.088;11.476;2023-05-25T03:19:50;11.63;;;5.90;;
75167;SDS011;63748;48.088;11.476;2023-05-25T03:22:17;11.93;;;6.18;;
75167;SDS011;63748;48.088;11.476;2023-05-25T03:24:43;16.42;;;6.40;;
75167;SDS011;63748;48.088;11.476;2023-05-25T03:27:10;12.05;;;6.47;;
75167;SDS011;63748;48.088;11.476;2023-05-25T03:29:36;11.32;;;6.57;;
75167;SDS011;63748;48.088;11.476;2023-05-25T03:32:02;12.90;;;7.25;;
75167;SDS011;63748;48.088;11.476;2023-05-25T03:34:28;10.90;;;6.03;;
75167;SDS011;63748;48.088;11.476;2023-05-25T03:36:54;11.50;;;6.15;;
75167;SDS011;63748;48.088;11.476;2023-05-25T03:39:21;11.18;;;6.43;;
75167;SDS011;63748;48.088;11.476;2023-05-25T03:41:47;11.57;;;6.72;;
75167;SDS011;63748;48.088;11.476;2023-05-25T03:44:13;12.82;;;6.55;;
75167;SDS011;63748;48.088;11.476;2023-05-25T03:46:39;13.75;;;7.25;;
75167;SDS011;63748;48.088;11.476;2023-05-25T03:49:05;10.52;;;6.75;;
75167;SDS011;63748;48.088;11.476;2023-05-25T03:51:31;11.80;;;7.10;;
75167;SDS011;63748;48.088;11.476;2023-05-25T03:53:57;13.20;;;6.97;;
75167;SDS011;63748;48.088;11.476;2023-05-25T03:56:23;10.85;;;6.93;;
75167;SDS011;63748;48.088;11.476;2023-05-25T03:58:50;12.98;;;5.97;;
75167;SDS011;63748;48.088;11.476;2023-05-25T04:01:16;19.60;;;7.00;;
75167;SDS011;63748;48.088;11.476;2023-05-25T04:03:43;12.60;;;7.07;;
75167;SDS011;63748;48.088;11.476;2023-05-25T04:06:09;10.32;;;6.50;;
75167;SDS011;63748;48.088;11.476;2023-05-25T04:08:35;11.25;;;5.55;;
75167;SDS011;63748;48.088;11.476;2023-05-25T04:11:01;12.10;;;6.38;;
75167;SDS011;63748;48.088;11.476;2023-05-25T04:13:27;14.13;;;5.90;;
75167;SDS011;63748;48.088;11.476;2023-05-25T04:15:54;10.63;;;6.22;;
75167;SDS011;63748;48.088;11.476;2023-05-25T04:18:20;9.45;;;5.90;;
75167;SDS011;63748;48.088;11.476;2023-05-25T04:20:46;12.48;;;6.38;;
75167;SDS011;63748;48.088;11.476;2023-05-25T04:23:12;10.00;;;6.53;;
75167;SDS011;63748;48.088;11.476;2023-05-25T04:25:38;10.57;;;5.68;;
75167;SDS011;63748;48.088;11.476;2023-05-25T04:28:06;11.80;;;6.07;;
75167;SDS011;63748;48.088;11.476;2023-05-25T04:30:32;10.15;;;6.25;;
75167;SDS011;63748;48.088;11.476;2023-05-25T04:33:00;11.02;;;6.00;;
75167;SDS011;63748;48.088;11.476;2023-05-25T04:35:26;9.25;;;5.20;;
75167;SDS011;63748;48.088;11.476;2023-05-25T04:37:52;9.60;;;5.50;;
75167;SDS011;63748;48.088;11.476;2023-05-25T04:40:18;10.75;;;5.70;;
75167;SDS011;63748;48.088;11.476;2023-05-25T04:42:45;10.25;;;5.22;;
75167;SDS011;63748;48.088;11.476;2023-05-25T04:45:12;10.00;;;5.03;;
75167;SDS011;63748;48.088;11.476;2023-05-25T04:47:41;10.35;;;6.05;;
75167;SDS011;63748;48.088;11.476;2023-05-25T04:50:08;8.98;;;5.70;;
75167;SDS011;63748;48.088;11.476;2023-05-25T04:52:35;12.52;;;6.57;;
75167;SDS011;63748;48.088;11.476;2023-05-25T04:55:01;10.43;;;6.60;;
75167;SDS011;63748;48.088;11.476;2023-05-25T04:57:27;11.55;;;6.20;;
75167;SDS011;63748;48.088;11.476;2023-05-25T05:02:21;12.60;;;6.55;;
75167;SDS011;63748;48.088;11.476;2023-05-25T05:04:48;9.75;;;6.22;;
75167;SDS011;63748;48.088;11.476;2023-05-25T05:07:18;12.45;;;6.10;;
75167;SDS011;63748;48.088;11.476;2023-05-25T05:09:45;12.32;;;6.57;;
75167;SDS011;63748;48.088;11.476;2023-05-25T05:12:11;11.43;;;6.82;;
75167;SDS011;63748;48.088;11.476;2023-05-25T05:14:37;14.52;;;6.85;;
75167;SDS011;63748;48.088;11.476;2023-05-25T05:17:03;13.00;;;6.32;;
75167;SDS011;63748;48.088;11.476;2023-05-25T05:19:29;12.95;;;5.65;;
75167;SDS011;63748;48.088;11.476;2023-05-25T05:21:57;12.00;;;6.47;;
75167;SDS011;63748;48.088;11.476;2023-05-25T05:24:23;13.23;;;6.60;;
75167;SDS011;63748;48.088;11.476;2023-05-25T05:26:50;13.25;;;6.63;;
75167;SDS011;63748;48.088;11.476;2023-05-25T05:29:16;13.95;;;6.40;;
75167;SDS011;63748;48.088;11.476;2023-05-25T05:31:43;15.93;;;6.45;;
75167;SDS011;63748;48.088;11.476;2023-05-25T05:34:10;13.13;;;7.45;;
75167;SDS011;63748;48.088;11.476;2023-05-25T05:36:36;15.15;;;8.55;;
75167;SDS011;63748;48.088;11.476;2023-05-25T05:39:02;15.43;;;6.20;;
75167;SDS011;63748;48.088;11.476;2023-05-25T05:41:28;12.07;;;6.50;;
75167;SDS011;63748;48.088;11.476;2023-05-25T05:43:54;11.98;;;7.18;;
75167;SDS011;63748;48.088;11.476;2023-05-25T05:46:20;11.63;;;6.07;;
75167;SDS011;63748;48.088;11.476;2023-05-25T05:48:47;13.55;;;6.93;;
75167;SDS011;63748;48.088;11.476;2023-05-25T05:51:13;13.27;;;7.05;;
75167;SDS011;63748;48.088;11.476;2023-05-25T05:53:39;13.45;;;6.78;;
75167;SDS011;63748;48.088;11.476;2023-05-25T05:56:05;12.90;;;6.82;;
75167;SDS011;63748;48.088;11.476;2023-05-25T05:58:31;14.07;;;6.80;;
75167;SDS011;63748;48.088;11.476;2023-05-25T06:00:57;12.48;;;7.10;;
75167;SDS011;63748;48.088;11.476;2023-05-25T06:03:24;15.95;;;6.80;;
75167;SDS011;63748;48.088;11.476;2023-05-25T06:05:52;9.48;;;6.07;;
75167;SDS011;63748;48.088;11.476;2023-05-25T06:08:18;9.77;;;5.93;;
75167;SDS011;63748;48.088;11.476;2023-05-25T06:10:45;11.40;;;6.90;;
75167;SDS011;63748;48.088;11.476;2023-05-25T06:13:11;11.63;;;5.78;;
75167;SDS011;63748;48.088;11.476;2023-05-25T06:15:37;11.73;;;5.85;;
75167;SDS011;63748;48.088;11.476;2023-05-25T06:18:03;12.02;;;6.13;;
75167;SDS011;63748;48.088;11.476;2023-05-25T06:20:29;10.05;;;6.10;;
75167;SDS011;63748;48.088;11.476;2023-05-25T06:22:55;11.02;;;5.88;;
75167;SDS011;63748;48.088;11.476;2023-05-25T06:25:21;9.15;;;5.35;;
75167;SDS011;63748;48.088;11.476;2023-05-25T06:27:47;10.88;;;6.22;;
75167;SDS011;63748;48.088;11.476;2023-05-25T06:30:13;12.45;;;5.70;;
75167;SDS011;63748;48.088;11.476;2023-05-25T06:32:40;9.95;;;5.78;;
75167;SDS011;63748;48.088;11.476;2023-05-25T06:35:07;11.15;;;6.63;;
75167;SDS011;63748;48.088;11.476;2023-05-25T06:37:33;12.15;;;6.78;;
75167;SDS011;63748;48.088;11.476;2023-05-25T06:40:02;13.18;;;6.35;;
75167;SDS011;63748;48.088;11.476;2023-05-25T06:42:29;10.40;;;5.82;;
75167;SDS011;63748;48.088;11.476;2023-05-25T06:44:55;10.02;;;5.82;;
75167;SDS011;63748;48.088;11.476;2023-05-25T06:47:21;10.05;;;5.90;;
75167;SDS011;63748;48.088;11.476;2023-05-25T06:49:48;10.07;;;5.78;;
75167;SDS011;63748;48.088;11.476;2023-05-25T06:52:14;10.32;;;5.75;;
75167;SDS011;63748;48.088;11.476;2023-05-25T06:54:40;9.27;;;4.95;;
75167;SDS011;63748;48.088;11.476;2023-05-25T06:57:06;11.20;;;5.85;;
75167;SDS011;63748;48.088;11.476;2023-05-25T06:59:32;11.48;;;6.38;;
75167;SDS011;63748;48.088;11.476;2023-05-25T07:01:58;11.65;;;6.50;;
75167;SDS011;63748;48.088;11.476;2023-05-25T07:04:24;11.07;;;6.35;;
75167;SDS011;63748;48.088;11.476;2023-05-25T07:06:52;9.07;;;5.93;;
75167;SDS011;63748;48.088;11.476;2023-05-25T07:09:18;10.20;;;6.55;;
75167;SDS011;63748;48.088;11.476;2023-05-25T07:11:45;12.40;;;6.50;;
75167;SDS011;63748;48.088;11.476;2023-05-25T07:14:11;10.60;;;6.20;;
75167;SDS011;63748;48.088;11.476;2023-05-25T07:16:37;12.00;;;6.85;;
75167;SDS011;63748;48.088;11.476;2023-05-25T07:19:03;10.57;;;6.15;;
75167;SDS011;63748;48.088;11.476;2023-05-25T07:21:30;10.65;;;6.55;;
75167;SDS011;63748;48.088;11.476;2023-05-25T07:24:01;8.90;;;5.85;;
75167;SDS011;63748;48.088;11.476;2023-05-25T07:26:27;10.07;;;5.80;;
75167;SDS011;63748;48.088;11.476;2023-05-25T07:28:53;12.70;;;6.22;;
75167;SDS011;63748;48.088;11.476;2023-05-25T07:31:19;9.70;;;6.35;;
75167;SDS011;63748;48.088;11.476;2023-05-25T07:33:46;11.02;;;6.28;;
75167;SDS011;63748;48.088;11.476;2023-05-25T07:36:12;11.32;;;5.93;;
75167;SDS011;63748;48.088;11.476;2023-05-25T07:38:38;9.05;;;6.00;;
75167;SDS011;63748;48.088;11.476;2023-05-25T07:41:04;11.00;;;5.93;;
75167;SDS011;63748;48.088;11.476;2023-05-25T07:43:30;12.07;;;7.40;;
75167;SDS011;63748;48.088;11.476;2023-05-25T07:45:56;12.55;;;7.07;;
75167;SDS011;63748;48.088;11.476;2023-05-25T07:48:22;11.27;;;6.13;;
75167;SDS011;63748;48.088;11.476;2023-05-25T07:50:49;12.57;;;5.47;;
75167;SDS011;63748;48.088;11.476;2023-05-25T07:53:15;10.70;;;6.20;;
75167;SDS011;63748;48.088;11.476;2023-05-25T07:55:41;12.05;;;7.18;;
75167;SDS011;63748;48.088;11.476;2023-05-25T07:58:07;11.25;;;6.65;;
75167;SDS011;63748;48.088;11.476;2023-05-25T08:00:33;10.48;;;5.85;;
75167;SDS011;63748;48.088;11.476;2023-05-25T08:02:59;12.73;;;6.75;;
75167;SDS011;63748;48.088;11.476;2023-05-25T08:05:26;15.05;;;6.88;;
75167;SDS011;63748;48.088;11.476;2023-05-25T08:07:52;10.90;;;5.97;;
75167;SDS011;63748;48.088;11.476;2023-05-25T08:10:18;13.55;;;6.05;;
75167;SDS011;63748;48.088;11.476;2023-05-25T08:12:45;9.55;;;6.63;;
75167;SDS011;63748;48.088;11.476;2023-05-25T08:15:11;10.00;;;7.05;;
75167;SDS011;63748;48.088;11.476;2023-05-25T08:17:37;13.30;;;6.13;;
75167;SDS011;63748;48.088;11.476;2023-05-25T08:20:05;11.45;;;6.78;;
75167;SDS011;63748;48.088;11.476;2023-05-25T08:22:32;11.80;;;6.43;;
75167;SDS011;63748;48.088;11.476;2023-05-25T08:24:58;12.20;;;6.40;;
75167;SDS011;63748;48.088;11.476;2023-05-25T08:27:24;9.43;;;6.43;;
75167;SDS011;63748;48.088;11.476;2023-05-25T08:29:50;11.90;;;6.50;;
75167;SDS011;63748;48.088;11.476;2023-05-25T08:32:16;10.88;;;5.72;;
75167;SDS011;63748;48.088;11.476;2023-05-25T08:34:42;9.45;;;5.57;;
75167;SDS011;63748;48.088;11.476;2023-05-25T08:37:09;9.68;;;5.60;;
75167;SDS011;63748;48.088;11.476;2023-05-25T08:39:35;7.72;;;5.45;;
75167;SDS011;63748;48.088;11.476;2023-05-25T08:42:01;12.48;;;6.10;;
75167;SDS011;63748;48.088;11.476;2023-05-25T08:44:27;12.68;;;6.25;;
75167;SDS011;63748;48.088;11.476;2023-05-25T08:46:55;10.25;;;5.68;;
75167;SDS011;63748;48.088;11.476;2023-05-25T08:49:21;9.45;;;5.85;;
75167;SDS011;63748;48.088;11.476;2023-05-25T08:51:48;10.35;;;6.10;;
75167;SDS011;63748;48.088;11.476;2023-05-25T08:54:18;9.75;;;5.75;;
75167;SDS011;63748;48.088;11.476;2023-05-25T08:56:48;10.10;;;6.55;;
75167;SDS011;63748;48.088;11.476;2023-05-25T08:59:25;12.65;;;6.28;;
75167;SDS011;63748;48.088;11.476;2023-05-25T09:01:55;10.98;;;6.50;;
75167;SDS011;63748;48.088;11.476;2023-05-25T09:04:23;12.70;;;6.28;;
75167;SDS011;63748;48.088;11.476;2023-05-25T09:06:50;10.70;;;6.25;;
75167;SDS011;63748;48.088;11.476;2023-05-25T09:09:16;10.57;;;5.88;;
75167;SDS011;63748;48.088;11.476;2023-05-25T09:11:43;11.18;;;6.38;;
75167;SDS011;63748;48.088;11.476;2023-05-25T09:14:10;10.13;;;5.70;;
75167;SDS011;63748;48.088;11.476;2023-05-25T09:16:36;10.70;;;5.95;;
75167;SDS011;63748;48.088;11.476;2023-05-25T09:19:02;8.68;;;5.25;;
75167;SDS011;63748;48.088;11.476;2023-05-25T09:21:28;11.82;;;5.18;;
75167;SDS011;63748;48.088;11.476;2023-05-25T09:23:54;9.23;;;5.60;;
75167;SDS011;63748;48.088;11.476;2023-05-25T09:26:20;10.07;;;6.22;;
75167;SDS011;63748;48.088;11.476;2023-05-25T09:28:47;9.38;;;6.18;;
75167;SDS011;63748;48.088;11.476;2023-05-25T09:31:16;9.52;;;6.18;;
75167;SDS011;63748;48.088;11.476;2023-05-25T09:33:42;8.85;;;5.57;;
75167;SDS011;63748;48.088;11.476;2023-05-25T09:36:08;9.25;;;5.82;;
75167;SDS011;63748;48.088;11.476;2023-05-25T09:38:35;9.65;;;5.70;;
75167;SDS011;63748;48.088;11.476;2023-05-25T09:41:02;11.43;;;7.60;;
75167;SDS011;63748;48.088;11.476;2023-05-25T09:43:28;13.02;;;7.00;;
75167;SDS011;63748;48.088;11.476;2023-05-25T09:45:54;9.82;;;6.03;;
75167;SDS011;63748;48.088;11.476;2023-05-25T09:48:21;10.75;;;6.30;;
75167;SDS011;63748;48.088;11.476;2023-05-25T09:50:48;8.95;;;5.38;;
75167;SDS011;63748;48.088;11.476;2023-05-25T09:53:14;11.02;;;6.15;;
75167;SDS011;63748;48.088;11.476;2023-05-25T09:55:40;9.75;;;6.22;;
75167;SDS011;63748;48.088;11.476;2023-05-25T09:58:06;9.25;;;5.85;;
75167;SDS011;63748;48.088;11.476;2023-05-25T10:00:32;11.23;;;6.53;;
75167;SDS011;63748;48.088;11.476;2023-05-25T10:02:58;9.45;;;5.50;;
75167;SDS011;63748;48.088;11.476;2023-05-25T10:05:25;11.13;;;5.93;;
75167;SDS011;63748;48.088;11.476;2023-05-25T10:07:51;7.75;;;5.30;;
75167;SDS011;63748;48.088;11.476;2023-05-25T10:10:18;9.75;;;5.95;;
75167;SDS011;63748;48.088;11.476;2023-05-25T10:12:44;8.52;;;5.05;;
75167;SDS011;63748;48.088;11.476;2023-05-25T10:15:13;8.88;;;5.57;;
75167;SDS011;63748;48.088;11.476;2023-05-25T10:17:44;9.63;;;5.55;;
75167;SDS011;63748;48.088;11.476;2023-05-25T10:20:14;9.63;;;5.57;;
75167;SDS011;63748;48.088;11.476;2023-05-25T10:22:46;10.20;;;5.65;;
75167;SDS011;63748;48.088;11.476;2023-05-25T10:28:24;9.55;;;5.72;;
75167;SDS011;63748;48.088;11.476;2023-05-25T10:30:29;12.85;;;6.00;;
75167;SDS011;63748;48.088;11.476;2023-05-25T10:32:56;10.02;;;5.70;;
75167;SDS011;63748;48.088;11.476;2023-05-25T10:35:22;8.35;;;5.50;;
75167;SDS011;63748;48.088;11.476;2023-05-25T10:37:52;7.63;;;5.53;;
75167;SDS011;63748;48.088;11.476;2023-05-25T10:40:22;9.20;;;5.55;;
75167;SDS011;63748;48.088;11.476;2023-05-25T10:42:48;8.35;;;5.30;;
75167;SDS011;63748;48.088;11.476;2023-05-25T10:45:15;9.20;;;6.05;;
75167;SDS011;63748;48.088;11.476;2023-05-25T10:47:42;9.50;;;6.18;;
75167;SDS011;63748;48.088;11.476;2023-05-25T10:50:20;9.73;;;5.63;;
75167;SDS011;63748;48.088;11.476;2023-05-25T10:52:56;11.07;;;6.40;;
75167;SDS011;63748;48.088;11.476;2023-05-25T10:55:23;9.02;;;5.35;;
75167;SDS011;63748;48.088;11.476;2023-05-25T10:58:07;9.20;;;5.20;;
75167;SDS011;63748;48.088;11.476;2023-05-25T11:00:37;8.10;;;5.93;;
75167;SDS011;63748;48.088;11.476;2023-05-25T11:03:03;10.68;;;5.78;;
75167;SDS011;63748;48.088;11.476;2023-05-25T11:05:30;6.72;;;4.90;;
75167;SDS011;63748;48.088;11.476;2023-05-25T11:07:57;7.97;;;5.47;;
75167;SDS011;63748;48.088;11.476;2023-05-25T11:18:37;7.53;;;4.65;;
75167;SDS011;63748;48.088;11.476;2023-05-25T11:21:10;7.10;;;5.35;;
75167;SDS011;63748;48.088;11.476;2023-05-25T11:26:36;9.07;;;5.20;;
75167;SDS011;63748;48.088;11.476;2023-05-25T11:29:12;8.77;;;5.30;;
75167;SDS011;63748;48.088;11.476;2023-05-25T11:31:39;10.25;;;6.05;;
75167;SDS011;63748;48.088;11.476;2023-05-25T11:34:05;10.18;;;5.57;;
75167;SDS011;63748;48.088;11.476;2023-05-25T11:36:32;7.68;;;5.35;;
75167;SDS011;63748;48.088;11.476;2023-05-25T11:38:59;8.43;;;5.55;;
75167;SDS011;63748;48.088;11.476;2023-05-25T11:41:29;8.00;;;4.95;;
75167;SDS011;63748;48.088;11.476;2023-05-25T11:44:02;8.02;;;5.13;;
75167;SDS011;63748;48.088;11.476;2023-05-25T11:46:29;8.95;;;5.85;;
75167;SDS011;63748;48.088;11.476;2023-05-25T11:48:57;7.63;;;5.57;;
75167;SDS011;63748;48.088;11.476;2023-05-25T11:51:24;8.10;;;5.07;;
75167;SDS011;63748;48.088;11.476;2023-05-25T11:53:50;7.00;;;5.05;;
75167;SDS011;63748;48.088;11.476;2023-05-25T11:56:17;9.15;;;5.75;;
75167;SDS011;63748;48.088;11.476;2023-05-25T11:58:44;6.95;;;5.15;;
75167;SDS011;63748;48.088;11.476;2023-05-25T12:01:14;6.78;;;4.57;;
75167;SDS011;63748;48.088;11.476;2023-05-25T12:03:41;7.95;;;5.60;;
75167;SDS011;63748;48.088;11.476;2023-05-25T12:06:07;8.13;;;5.43;;
75167;SDS011;63748;48.088;11.476;2023-05-25T12:08:34;7.18;;;5.93;;
75167;SDS011;63748;48.088;11.476;2023-05-25T12:11:01;8.60;;;5.70;;
75167;SDS011;63748;48.088;11.476;2023-05-25T12:13:27;7.18;;;5.88;;
75167;SDS011;63748;48.088;11.476;2023-05-25T12:15:53;7.43;;;5.28;;
75167;SDS011;63748;48.088;11.476;2023-05-25T12:18:21;6.82;;;5.43;;
75167;SDS011;63748;48.088;11.476;2023-05-25T12:20:47;9.30;;;5.43;;
75167;SDS011;63748;48.088;11.476;2023-05-25T12:23:13;6.60;;;4.82;;
75167;SDS011;63748;48.088;11.476;2023-05-25T12:25:40;7.47;;;5.13;;
75167;SDS011;63748;48.088;11.476;2023-05-25T12:28:12;5.72;;;4.95;;
75167;SDS011;63748;48.088;11.476;2023-05-25T12:30:39;7.43;;;5.82;;
75167;SDS011;63748;48.088;11.476;2023-05-25T12:33:05;5.68;;;4.65;;
75167;SDS011;63748;48.088;11.476;2023-05-25T12:35:47;8.20;;;5.97;;
75167;SDS011;63748;48.088;11.476;2023-05-25T12:38:17;8.57;;;5.38;;
75167;SDS011;63748;48.088;11.476;2023-05-25T12:40:43;7.25;;;4.97;;
75167;SDS011;63748;48.088;11.476;2023-05-25T12:43:09;7.07;;;5.38;;
75167;SDS011;63748;48.088;11.476;2023-05-25T12:45:41;7.30;;;6.28;;
75167;SDS011;63748;48.088;11.476;2023-05-25T12:48:07;8.23;;;5.03;;
75167;SDS011;63748;48.088;11.476;2023-05-25T12:50:33;7.65;;;5.13;;
75167;SDS011;63748;48.088;11.476;2023-05-25T12:53:02;6.75;;;4.82;;
75167;SDS011;63748;48.088;11.476;2023-05-25T12:55:32;8.77;;;5.15;;
75167;SDS011;63748;48.088;11.476;2023-05-25T12:58:00;6.57;;;4.80;;
75167;SDS011;63748;48.088;11.476;2023-05-25T13:00:30;5.65;;;4.38;;
75167;SDS011;63748;48.088;11.476;2023-05-25T13:02:56;7.25;;;4.72;;
75167;SDS011;63748;48.088;11.476;2023-05-25T13:05:24;8.10;;;4.60;;
75167;SDS011;63748;48.088;11.476;2023-05-25T13:07:52;6.13;;;4.53;;
75167;SDS011;63748;48.088;11.476;2023-05-25T13:10:18;6.55;;;5.30;;
75167;SDS011;63748;48.088;11.476;2023-05-25T13:12:45;6.88;;;4.60;;
75167;SDS011;63748;48.088;11.476;2023-05-25T13:15:11;5.90;;;4.35;;
75167;SDS011;63748;48.088;11.476;2023-05-25T13:17:39;6.82;;;4.10;;
75167;SDS011;63748;48.088;11.476;2023-05-25T13:20:06;5.95;;;5.07;;
75167;SDS011;63748;48.088;11.476;2023-05-25T13:22:32;5.03;;;4.20;;
75167;SDS011;63748;48.088;11.476;2023-05-25T13:24:58;5.63;;;4.65;;
75167;SDS011;63748;48.088;11.476;2023-05-25T13:27:24;10.02;;;5.80;;
75167;SDS011;63748;48.088;11.476;2023-05-25T13:29:50;6.32;;;4.72;;
75167;SDS011;63748;48.088;11.476;2023-05-25T13:32:16;5.85;;;5.05;;
75167;SDS011;63748;48.088;11.476;2023-05-25T13:34:43;7.40;;;4.53;;
75167;SDS011;63748;48.088;11.476;2023-05-25T13:37:09;8.52;;;5.15;;
75167;SDS011;63748;48.088;11.476;2023-05-25T13:39:35;7.20;;;5.25;;
75167;SDS011;63748;48.088;11.476;2023-05-25T13:42:01;8.73;;;5.22;;
75167;SDS011;63748;48.088;11.476;2023-05-25T13:44:27;9.07;;;5.65;;
75167;SDS011;63748;48.088;11.476;2023-05-25T13:46:53;7.70;;;5.07;;
75167;SDS011;63748;48.088;11.476;2023-05-25T13:49:19;6.82;;;5.07;;
75167;SDS011;63748;48.088;11.476;2023-05-25T13:51:46;6.03;;;4.68;;
75167;SDS011;63748;48.088;11.476;2023-05-25T13:54:12;6.85;;;5.15;;
75167;SDS011;63748;48.088;11.476;2023-05-25T13:56:38;7.55;;;5.65;;
75167;SDS011;63748;48.088;11.476;2023-05-25T13:59:06;7.72;;;5.82;;
75167;SDS011;63748;48.088;11.476;2023-05-25T14:01:32;7.13;;;5.40;;
75167;SDS011;63748;48.088;11.476;2023-05-25T14:03:58;6.43;;;5.10;;
75167;SDS011;63748;48.088;11.476;2023-05-25T14:06:24;8.10;;;5.07;;
75167;SDS011;63748;48.088;11.476;2023-05-25T14:08:50;7.53;;;4.82;;
75167;SDS011;63748;48.088;11.476;2023-05-25T14:11:16;7.30;;;5.20;;
75167;SDS011;63748;48.088;11.476;2023-05-25T14:13:42;6.82;;;5.43;;
75167;SDS011;63748;48.088;11.476;2023-05-25T14:16:08;8.70;;;6.25;;
75167;SDS011;63748;48.088;11.476;2023-05-25T14:18:35;7.43;;;5.65;;
75167;SDS011;63748;48.088;11.476;2023-05-25T14:21:01;5.65;;;4.75;;
75167;SDS011;63748;48.088;11.476;2023-05-25T14:23:27;9.70;;;5.50;;
75167;SDS011;63748;48.088;11.476;2023-05-25T14:25:53;7.22;;;4.55;;
75167;SDS011;63748;48.088;11.476;2023-05-25T14:28:19;5.88;;;4.85;;
75167;SDS011;63748;48.088;11.476;2023-05-25T14:30:45;7.35;;;5.38;;
75167;SDS011;63748;48.088;11.476;2023-05-25T14:33:11;8.75;;;5.60;;
75167;SDS011;63748;48.088;11.476;2023-05-25T14:35:39;7.75;;;6.03;;
75167;SDS011;63748;48.088;11.476;2023-05-25T14:38:06;7.38;;;6.00;;
75167;SDS011;63748;48.088;11.476;2023-05-25T14:40:32;7.60;;;5.85;;
75167;SDS011;63748;48.088;11.476;2023-05-25T14:42:58;7.65;;;6.18;;
75167;SDS011;63748;48.088;11.476;2023-05-25T14:45:24;8.90;;;6.03;;
75167;SDS011;63748;48.088;11.476;2023-05-25T14:47:51;8.80;;;6.38;;
75167;SDS011;63748;48.088;11.476;2023-05-25T14:50:17;7.93;;;5.45;;